Preview of NWS' New Version of Forecast
This preview is not operational and should not be used for support decisions.

Terminal Aerodrome Forecast (TAF)

Issued by National Weather Service (NWS)

                            
355 
FTUS42 KKEY 251629 AAA
TAFEYW
TAF AMD
KEYW 251629Z 2516/2612 08008KT P6SM SCT020
     FM260000 03006KT P6SM FEW020
     FM261000 36009KT P6SM SKC=